Time;durP1;ratioP1;P1;durP2;ratioP2;P2;SDS_P1;SDS_P2;PMS_P1;PMS_P2;Temp;Humidity;BMP_temperature;BMP_pressure;BME280_temperature;BME280_humidity;BME280_pressure;Samples;Min_cycle;Max_cycle;Signal;HPM_P1;HPM_P2
2023/12/31 00:00:32;;;;;;;4.30;1.97;;;22.70;67.30;;;;;;5054634;28;20936;-90
2023/12/31 00:02:59;;;;;;;3.80;1.93;;;22.70;67.30;;;;;;5054731;28;20445;-90
2023/12/31 00:05:27;;;;;;;2.80;2.20;;;22.70;67.30;;;;;;5054454;28;20442;-91
2023/12/31 00:07:55;;;;;;;4.20;1.77;;;22.70;67.30;;;;;;5054445;28;20451;-90
2023/12/31 00:10:21;;;;;;;2.17;1.50;;;22.70;67.40;;;;;;5054154;28;20552;-92
2023/12/31 00:12:48;;;;;;;2.87;1.90;;;22.60;67.20;;;;;;5052943;28;20481;-91
2023/12/31 00:15:15;;;;;;;3.10;1.67;;;22.70;67.30;;;;;;5054345;28;20444;-90
2023/12/31 00:17:42;;;;;;;3.40;2.00;;;22.60;67.20;;;;;;5054106;28;20464;-91
2023/12/31 00:20:09;;;;;;;3.70;2.27;;;22.60;67.20;;;;;;5053946;28;20810;-90
2023/12/31 00:22:36;;;;;;;3.30;2.20;;;22.60;67.10;;;;;;5053946;28;20441;-90
2023/12/31 00:25:05;;;;;;;5.93;2.07;;;22.60;67.30;;;;;;5053635;28;20445;-90
2023/12/31 00:27:32;;;;;;;2.70;1.97;;;22.60;67.20;;;;;;5053826;28;20442;-91
2023/12/31 00:29:58;;;;;;;2.90;1.83;;;22.60;67.20;;;;;;5054586;28;20512;-90
2023/12/31 00:32:25;;;;;;;3.40;1.63;;;22.60;67.20;;;;;;5054075;28;20475;-91
2023/12/31 00:34:52;;;;;;;3.30;1.53;;;22.60;67.10;;;;;;5053131;28;21002;-91
2023/12/31 00:37:19;;;;;;;2.83;1.83;;;22.60;67.20;;;;;;5053794;28;20932;-91
2023/12/31 00:39:46;;;;;;;2.63;1.53;;;22.60;67.20;;;;;;5054009;28;20448;-91
2023/12/31 00:42:14;;;;;;;2.17;1.87;;;22.50;67.30;;;;;;5054159;28;20875;-91
2023/12/31 00:44:41;;;;;;;2.23;1.70;;;22.60;67.20;;;;;;5053795;28;20442;-90
2023/12/31 00:47:07;;;;;;;1.80;1.47;;;22.60;67.20;;;;;;5053961;28;20807;-91
2023/12/31 00:49:34;;;;;;;2.50;1.50;;;22.50;67.10;;;;;;5053638;28;20444;-90
2023/12/31 00:52:01;;;;;;;2.40;1.73;;;22.50;67.00;;;;;;5053703;28;20496;-91
2023/12/31 00:54:28;;;;;;;2.50;1.70;;;22.50;67.00;;;;;;5054104;28;20459;-91
2023/12/31 00:56:55;;;;;;;1.63;1.33;;;22.60;67.20;;;;;;5053469;28;20449;-91
2023/12/31 00:59:23;;;;;;;1.60;1.17;;;22.50;67.10;;;;;;5053835;28;20437;-94
2023/12/31 01:01:51;;;;;;;1.90;1.50;;;22.50;67.10;;;;;;5053635;28;20948;-90
2023/12/31 01:04:17;;;;;;;2.07;1.50;;;22.50;67.00;;;;;;5053501;28;20434;-90
2023/12/31 01:06:44;;;;;;;1.60;1.30;;;22.50;67.10;;;;;;5053907;28;20487;-91
2023/12/31 01:09:11;;;;;;;2.17;1.53;;;22.50;67.00;;;;;;5053726;28;20445;-91
2023/12/31 01:11:38;;;;;;;3.33;1.40;;;22.50;67.00;;;;;;5053139;28;20960;-90
2023/12/31 01:14:05;;;;;;;3.27;1.80;;;22.50;67.00;;;;;;5053211;28;20524;-91
2023/12/31 01:16:33;;;;;;;2.40;1.50;;;22.50;67.10;;;;;;5053191;28;20960;-90
2023/12/31 01:19:00;;;;;;;2.80;1.70;;;22.50;67.10;;;;;;5053273;28;20984;-91
2023/12/31 01:21:26;;;;;;;2.23;1.80;;;22.40;66.90;;;;;;5053272;28;20528;-91
2023/12/31 01:23:53;;;;;;;1.93;1.47;;;22.50;67.10;;;;;;5053498;28;20453;-90
2023/12/31 01:26:20;;;;;;;3.00;1.87;;;22.40;67.00;;;;;;5053231;28;20548;-91
2023/12/31 01:28:47;;;;;;;1.73;1.30;;;22.40;67.00;;;;;;5053373;28;20437;-90
2023/12/31 01:31:19;;;;;;;2.70;1.40;;;22.40;67.00;;;;;;5053214;28;20948;-90
2023/12/31 01:33:47;;;;;;;2.77;1.60;;;22.40;67.10;;;;;;5052858;28;20493;-91
2023/12/31 01:36:15;;;;;;;1.70;1.30;;;22.40;67.00;;;;;;5052901;28;20943;-91
2023/12/31 01:38:42;;;;;;;1.77;1.13;;;22.40;67.10;;;;;;5053014;28;20912;-90
2023/12/31 01:41:09;;;;;;;2.57;1.40;;;22.40;67.00;;;;;;5053091;28;20963;-90
2023/12/31 01:43:36;;;;;;;2.80;1.27;;;22.40;67.00;;;;;;5053147;28;20524;-91
2023/12/31 01:46:03;;;;;;;1.63;1.53;;;22.40;67.00;;;;;;5053085;28;20863;-91
2023/12/31 01:48:30;;;;;;;2.83;1.57;;;22.40;67.10;;;;;;5052956;28;20437;-91
2023/12/31 01:50:59;;;;;;;2.80;1.20;;;22.30;66.90;;;;;;5053021;28;20444;-91
2023/12/31 01:53:27;;;;;;;1.70;1.37;;;22.30;67.00;;;;;;5052911;28;20493;-91
2023/12/31 01:55:55;;;;;;;1.73;1.10;;;22.40;67.10;;;;;;5052649;28;20944;-90
2023/12/31 01:58:23;;;;;;;2.60;1.43;;;22.40;67.00;;;;;;5052835;28;20433;-90
2023/12/31 02:00:50;;;;;;;1.60;1.20;;;22.30;66.90;;;;;;5052748;28;20434;-90
2023/12/31 02:03:18;;;;;;;1.50;1.17;;;22.30;66.90;;;;;;5052938;28;20460;-91
2023/12/31 02:05:45;;;;;;;1.90;1.50;;;22.30;66.80;;;;;;5052933;28;20928;-90
2023/12/31 02:08:13;;;;;;;1.50;1.20;;;22.40;67.00;;;;;;5054207;28;20804;-90
2023/12/31 02:10:40;;;;;;;2.07;1.40;;;22.30;66.80;;;;;;5056444;28;20445;-91
2023/12/31 02:13:07;;;;;;;1.60;1.23;;;22.40;66.90;;;;;;5055436;28;21071;-90
2023/12/31 02:15:35;;;;;;;2.07;1.33;;;22.40;66.90;;;;;;5055513;28;20449;-90
2023/12/31 02:18:03;;;;;;;1.60;1.03;;;22.30;66.80;;;;;;5055901;28;20448;-91
2023/12/31 02:20:30;;;;;;;1.80;1.30;;;22.40;66.90;;;;;;5056397;28;20444;-90
2023/12/31 02:22:58;;;;;;;1.97;1.13;;;22.40;66.80;;;;;;5056332;28;20451;-91
2023/12/31 02:25:28;;;;;;;1.87;1.37;;;22.40;66.80;;;;;;5056233;28;20457;-91
2023/12/31 02:27:57;;;;;;;1.47;1.07;;;22.40;66.80;;;;;;5056485;28;20459;-91
2023/12/31 02:30:25;;;;;;;2.03;1.30;;;22.40;66.80;;;;;;5056293;28;20437;-91
2023/12/31 02:32:52;;;;;;;1.50;1.07;;;22.40;66.70;;;;;;5056409;28;20481;-91
2023/12/31 02:35:18;;;;;;;1.57;1.20;;;22.40;66.70;;;;;;5055546;28;20850;-90
2023/12/31 02:37:45;;;;;;;2.67;1.33;;;22.40;66.60;;;;;;5056493;28;20441;-91
2023/12/31 02:40:12;;;;;;;1.80;1.23;;;22.40;66.60;;;;;;5056380;28;20445;-91
2023/12/31 02:42:39;;;;;;;1.77;1.17;;;22.40;66.60;;;;;;5056210;28;20432;-90
2023/12/31 02:45:07;;;;;;;2.17;1.23;;;22.40;66.50;;;;;;5056207;28;20443;-91
2023/12/31 02:47:34;;;;;;;2.03;1.20;;;22.40;66.60;;;;;;5056107;28;20452;-91
2023/12/31 02:50:01;;;;;;;1.93;0.90;;;22.40;66.50;;;;;;5056252;28;20535;-91
2023/12/31 02:52:28;;;;;;;2.40;1.10;;;22.40;66.50;;;;;;5055733;28;20438;-90
2023/12/31 02:54:55;;;;;;;1.87;1.30;;;22.40;66.40;;;;;;5056003;28;20444;-91
2023/12/31 02:57:23;;;;;;;1.90;1.23;;;22.40;66.50;;;;;;5056027;28;20835;-91
2023/12/31 02:59:50;;;;;;;1.40;1.17;;;22.40;66.40;;;;;;5056075;28;20463;-92
2023/12/31 03:02:18;;;;;;;1.80;1.10;;;22.40;66.40;;;;;;5056126;28;20450;-91
2023/12/31 03:04:45;;;;;;;1.50;1.30;;;22.40;66.40;;;;;;5056130;28;20445;-91
2023/12/31 03:07:11;;;;;;;2.03;1.10;;;22.40;67.20;;;;;;5055841;28;20450;-90
2023/12/31 03:09:38;;;;;;;2.03;1.07;;;22.40;66.40;;;;;;5055741;28;20802;-90
2023/12/31 03:12:06;;;;;;;1.50;1.10;;;22.40;66.30;;;;;;5055895;28;20445;-91
2023/12/31 03:14:32;;;;;;;1.60;1.00;;;22.40;66.30;;;;;;5055470;28;21022;-94
2023/12/31 03:16:59;;;;;;;1.40;1.10;;;22.40;66.20;;;;;;5055673;28;20437;-91
2023/12/31 03:19:27;;;;;;;1.60;1.30;;;22.40;66.30;;;;;;5054516;28;20894;-91
2023/12/31 03:21:54;;;;;;;1.60;1.10;;;22.40;66.20;;;;;;5055871;28;20438;-95
2023/12/31 03:24:22;;;;;;;2.07;1.10;;;22.40;66.20;;;;;;5055218;28;20433;-91
2023/12/31 03:26:49;;;;;;;1.87;1.40;;;22.40;66.20;;;;;;5055384;28;20489;-91
2023/12/31 03:29:16;;;;;;;1.50;1.30;;;22.40;67.10;;;;;;5055209;28;20516;-92
2023/12/31 03:31:43;;;;;;;3.93;1.83;;;22.40;66.10;;;;;;5055522;28;20928;-91
2023/12/31 03:34:10;;;;;;;1.40;1.10;;;22.40;66.10;;;;;;5055321;28;20503;-93
2023/12/31 03:36:38;;;;;;;1.30;1.07;;;22.40;66.10;;;;;;5055563;28;20506;-91
2023/12/31 03:39:05;;;;;;;1.30;1.00;;;22.40;66.00;;;;;;5055631;28;20780;-90
2023/12/31 03:41:32;;;;;;;1.30;0.93;;;22.40;66.00;;;;;;5055163;28;20445;-91
2023/12/31 03:44:00;;;;;;;1.23;1.00;;;22.40;66.10;;;;;;5047227;28;20444;-91
2023/12/31 03:46:26;;;;;;;1.50;1.10;;;22.40;66.00;;;;;;5055083;28;20486;-91
2023/12/31 03:48:53;;;;;;;1.40;1.00;;;22.40;66.00;;;;;;5055213;28;20433;-90
2023/12/31 03:51:20;;;;;;;1.27;0.90;;;22.40;66.00;;;;;;5054912;28;20863;-91
2023/12/31 03:53:48;;;;;;;1.20;0.90;;;22.40;66.80;;;;;;5054841;28;20481;-90
2023/12/31 03:56:16;;;;;;;1.30;0.90;;;22.40;65.90;;;;;;5055033;28;20956;-91
2023/12/31 03:58:43;;;;;;;1.40;1.00;;;22.50;66.00;;;;;;5054997;28;20460;-90
2023/12/31 04:01:10;;;;;;;1.40;1.17;;;22.40;65.90;;;;;;5054813;28;20441;-90
2023/12/31 04:03:36;;;;;;;1.30;1.00;;;22.40;65.90;;;;;;5054850;28;20448;-91
2023/12/31 04:06:03;;;;;;;1.77;1.20;;;22.40;65.90;;;;;;5054740;28;20442;-90
2023/12/31 04:08:30;;;;;;;1.70;1.27;;;22.40;65.80;;;;;;5054879;28;20444;-91
2023/12/31 04:10:58;;;;;;;1.30;0.97;;;22.40;65.90;;;;;;5054690;28;20452;-90
2023/12/31 04:13:25;;;;;;;1.50;1.10;;;22.40;65.90;;;;;;5054276;28;20839;-91
2023/12/31 04:15:52;;;;;;;1.30;0.90;;;22.40;65.80;;;;;;5054546;28;20455;-90
2023/12/31 04:18:19;;;;;;;2.13;1.20;;;22.40;65.90;;;;;;5054296;28;20799;-91
2023/12/31 04:20:46;;;;;;;1.20;0.90;;;22.40;65.80;;;;;;5054408;28;20433;-91
2023/12/31 04:23:13;;;;;;;4.23;1.10;;;22.40;65.90;;;;;;5054289;28;20437;-91
2023/12/31 04:25:39;;;;;;;1.40;1.10;;;22.40;65.90;;;;;;5049750;28;20813;-91
2023/12/31 04:28:08;;;;;;;1.23;0.93;;;22.40;65.80;;;;;;5036175;28;20875;-90
2023/12/31 04:30:37;;;;;;;1.90;1.00;;;22.40;65.80;;;;;;5047670;28;20548;-95
2023/12/31 04:33:07;;;;;;;2.17;1.10;;;22.40;65.80;;;;;;5042833;28;20486;-91
2023/12/31 04:35:34;;;;;;;2.03;1.37;;;22.40;65.70;;;;;;5018900;28;20506;-91
2023/12/31 04:38:01;;;;;;;1.40;1.00;;;22.50;65.80;;;;;;5034250;28;20520;-91
2023/12/31 04:40:28;;;;;;;1.50;1.00;;;22.40;65.70;;;;;;5030608;28;20451;-91
2023/12/31 04:42:56;;;;;;;1.20;0.80;;;22.40;65.80;;;;;;5015056;28;20580;-90
2023/12/31 04:45:24;;;;;;;1.40;1.13;;;22.40;65.70;;;;;;5017767;28;20447;-91
2023/12/31 04:47:51;;;;;;;1.63;1.00;;;22.40;65.70;;;;;;5029390;28;20800;-91
2023/12/31 04:50:17;;;;;;;1.73;0.97;;;22.40;65.70;;;;;;5014326;28;20965;-92
2023/12/31 04:52:44;;;;;;;1.20;0.90;;;22.40;65.60;;;;;;5014242;28;20435;-91
2023/12/31 04:55:11;;;;;;;1.20;1.00;;;22.40;65.60;;;;;;5013910;28;20493;-91
2023/12/31 04:57:38;;;;;;;1.27;0.93;;;22.40;65.60;;;;;;5013952;28;20443;-91
2023/12/31 05:00:06;;;;;;;1.67;1.00;;;22.40;65.60;;;;;;5013936;28;20466;-91
2023/12/31 05:02:34;;;;;;;1.43;1.07;;;22.40;65.60;;;;;;5014266;28;20466;-90
2023/12/31 05:05:03;;;;;;;1.20;1.00;;;22.40;65.60;;;;;;5014114;28;20931;-95
2023/12/31 05:07:30;;;;;;;1.30;0.80;;;22.40;65.50;;;;;;5013991;28;20543;-91
2023/12/31 05:09:57;;;;;;;1.20;1.00;;;22.40;65.50;;;;;;5013509;28;20447;-95
2023/12/31 05:12:24;;;;;;;2.07;1.07;;;22.40;65.50;;;;;;5012746;28;20526;-94
2023/12/31 05:14:51;;;;;;;1.50;1.00;;;22.40;65.40;;;;;;5012176;28;20850;-90
2023/12/31 05:17:18;;;;;;;1.60;1.00;;;22.40;65.40;;;;;;5012529;28;21037;-91
2023/12/31 05:19:47;;;;;;;1.50;1.20;;;22.40;65.40;;;;;;5012693;28;20457;-90
2023/12/31 05:22:14;;;;;;;1.57;1.13;;;22.40;65.40;;;;;;5012426;28;20451;-92
2023/12/31 05:24:41;;;;;;;1.20;0.80;;;22.50;65.40;;;;;;5012308;28;20447;-92
2023/12/31 05:27:07;;;;;;;1.30;0.93;;;22.50;65.50;;;;;;5013534;28;20540;-91
2023/12/31 05:29:34;;;;;;;1.40;1.00;;;22.50;65.40;;;;;;5013428;28;20447;-91
2023/12/31 05:32:01;;;;;;;1.40;1.00;;;22.40;65.20;;;;;;5013578;28;20858;-90
2023/12/31 05:34:28;;;;;;;1.30;0.80;;;22.50;65.30;;;;;;5024231;28;20588;-91
2023/12/31 05:36:56;;;;;;;1.30;0.90;;;22.40;65.10;;;;;;5033110;28;20434;-91
2023/12/31 05:39:23;;;;;;;1.30;1.10;;;22.50;65.30;;;;;;5033255;28;20937;-91
2023/12/31 05:41:50;;;;;;;1.20;0.90;;;22.50;65.30;;;;;;5033263;28;20967;-91
2023/12/31 05:44:16;;;;;;;1.20;0.93;;;22.50;65.20;;;;;;5032554;28;20529;-90
2023/12/31 05:46:43;;;;;;;1.30;0.90;;;22.50;65.10;;;;;;5033234;28;20855;-96
2023/12/31 05:49:10;;;;;;;1.47;1.00;;;22.50;65.20;;;;;;5033165;28;20925;-91
2023/12/31 05:51:37;;;;;;;1.40;0.90;;;22.50;65.10;;;;;;5033241;28;20449;-91
2023/12/31 05:54:05;;;;;;;1.10;0.80;;;22.50;65.10;;;;;;5033288;28;20502;-92
2023/12/31 05:56:32;;;;;;;1.27;1.00;;;22.50;65.10;;;;;;5032833;28;20462;-91
2023/12/31 05:58:59;;;;;;;1.60;1.10;;;22.50;65.10;;;;;;5033003;28;20529;-91
2023/12/31 06:01:25;;;;;;;1.80;0.90;;;22.50;65.10;;;;;;5033089;28;20450;-93
2023/12/31 06:03:55;;;;;;;1.20;0.93;;;22.50;65.10;;;;;;5033337;28;20451;-90
2023/12/31 06:06:22;;;;;;;1.40;0.90;;;22.50;65.10;;;;;;5033146;28;20457;-92
2023/12/31 06:08:49;;;;;;;1.50;1.00;;;22.50;65.10;;;;;;5032954;28;20460;-91
2023/12/31 06:11:17;;;;;;;1.20;0.90;;;22.50;65.00;;;;;;5033093;28;20442;-94
2023/12/31 06:13:44;;;;;;;1.30;1.00;;;22.50;65.00;;;;;;5032872;28;20482;-91
2023/12/31 06:16:12;;;;;;;1.40;1.00;;;22.50;64.90;;;;;;5032618;28;20446;-93
2023/12/31 06:18:38;;;;;;;1.40;0.97;;;22.50;64.90;;;;;;5033047;28;20449;-91
2023/12/31 06:21:05;;;;;;;1.30;0.90;;;22.50;65.00;;;;;;5032723;28;20933;-91
2023/12/31 06:23:32;;;;;;;1.30;1.10;;;22.50;64.90;;;;;;5032919;28;20493;-90
2023/12/31 06:25:59;;;;;;;1.23;0.80;;;22.50;64.90;;;;;;5032929;28;20462;-90
2023/12/31 06:28:27;;;;;;;1.53;1.23;;;22.50;64.90;;;;;;5032519;28;20432;-91
2023/12/31 06:30:54;;;;;;;1.10;0.70;;;22.50;64.80;;;;;;5032659;28;20433;-90
2023/12/31 06:33:23;;;;;;;1.43;1.20;;;22.50;64.80;;;;;;5032557;28;20438;-91
2023/12/31 06:35:50;;;;;;;1.20;0.93;;;22.50;64.70;;;;;;5032981;28;20529;-92
2023/12/31 06:38:17;;;;;;;1.17;0.83;;;22.50;64.70;;;;;;5032822;28;20434;-90
2023/12/31 06:40:44;;;;;;;1.10;0.80;;;22.60;64.90;;;;;;5032942;28;20811;-90
2023/12/31 06:43:11;;;;;;;1.67;0.90;;;22.50;64.70;;;;;;5032500;28;20527;-91
2023/12/31 06:45:40;;;;;;;1.40;0.90;;;22.50;64.70;;;;;;5032488;28;20434;-91
2023/12/31 06:48:07;;;;;;;1.53;1.13;;;22.50;64.80;;;;;;5032624;28;20471;-92
2023/12/31 06:50:34;;;;;;;1.20;0.90;;;22.50;64.80;;;;;;5032533;28;20801;-91
2023/12/31 06:53:00;;;;;;;1.70;0.90;;;22.50;64.70;;;;;;5032484;28;20449;-93
2023/12/31 06:55:27;;;;;;;1.73;1.00;;;22.60;64.80;;;;;;5035157;28;20492;-91
2023/12/31 06:57:54;;;;;;;1.40;1.10;;;22.60;64.80;;;;;;5036085;28;20528;-94
2023/12/31 07:00:22;;;;;;;1.30;1.00;;;22.60;64.80;;;;;;5036021;28;20445;-91
2023/12/31 07:02:50;;;;;;;1.37;1.10;;;22.60;64.70;;;;;;5036028;28;20478;-90
2023/12/31 07:05:17;;;;;;;1.20;0.90;;;22.60;64.60;;;;;;5035887;28;20504;-91
2023/12/31 07:07:44;;;;;;;1.20;0.80;;;22.60;64.70;;;;;;5035956;28;20762;-91
2023/12/31 07:10:11;;;;;;;1.20;0.90;;;22.60;64.70;;;;;;5035964;28;20449;-90
2023/12/31 07:12:37;;;;;;;2.03;0.93;;;22.60;64.70;;;;;;5035668;28;20442;-91
2023/12/31 07:15:05;;;;;;;1.47;1.00;;;22.60;64.70;;;;;;5035790;28;20490;-91
2023/12/31 07:17:32;;;;;;;1.20;1.00;;;22.60;64.70;;;;;;5035656;28;20529;-90
2023/12/31 07:20:00;;;;;;;1.30;1.00;;;22.70;64.80;;;;;;5035600;28;20457;-90
2023/12/31 07:22:27;;;;;;;1.50;1.00;;;22.60;64.60;;;;;;5035753;28;20537;-90
2023/12/31 07:24:54;;;;;;;1.20;0.90;;;22.60;64.60;;;;;;5035620;28;20462;-90
2023/12/31 07:27:20;;;;;;;1.30;1.10;;;22.60;64.50;;;;;;5035493;28;20808;-90
2023/12/31 07:29:47;;;;;;;1.10;0.83;;;22.60;64.60;;;;;;5035621;28;20445;-91
2023/12/31 07:32:14;;;;;;;1.20;0.90;;;22.70;64.70;;;;;;5035379;28;20457;-90
2023/12/31 07:34:41;;;;;;;1.30;1.00;;;22.60;64.60;;;;;;5035204;28;20858;-91
2023/12/31 07:37:09;;;;;;;2.83;0.90;;;22.60;64.50;;;;;;5035327;28;20533;-91
2023/12/31 07:39:36;;;;;;;1.20;0.80;;;22.60;64.50;;;;;;5035493;28;20484;-91
2023/12/31 07:42:05;;;;;;;1.30;0.90;;;22.60;64.60;;;;;;5035099;28;20933;-90
2023/12/31 07:44:32;;;;;;;1.20;0.93;;;22.60;64.50;;;;;;5035206;28;20533;-91
2023/12/31 07:46:59;;;;;;;1.20;0.90;;;22.60;64.50;;;;;;5035273;28;20859;-91
2023/12/31 07:49:26;;;;;;;10.10;1.17;;;22.60;64.40;;;;;;5035144;28;20434;-91
2023/12/31 07:51:52;;;;;;;1.40;1.00;;;22.60;64.40;;;;;;5035440;28;20435;-91
2023/12/31 07:54:20;;;;;;;1.10;0.70;;;22.60;64.40;;;;;;5035044;28;20470;-91
2023/12/31 07:56:48;;;;;;;1.20;1.00;;;22.60;64.40;;;;;;5034690;28;20465;-94
2023/12/31 07:59:14;;;;;;;1.30;1.13;;;22.60;64.40;;;;;;5035230;28;20465;-94
2023/12/31 08:01:41;;;;;;;1.30;1.00;;;22.60;64.40;;;;;;5034998;28;20814;-91
2023/12/31 08:04:08;;;;;;;1.80;0.90;;;22.60;65.20;;;;;;5034951;28;20529;-94
2023/12/31 08:06:35;;;;;;;1.30;1.00;;;22.60;64.40;;;;;;5034185;28;20439;-91
2023/12/31 08:09:02;;;;;;;1.20;0.90;;;22.60;64.50;;;;;;5034935;28;20454;-90
2023/12/31 08:11:30;;;;;;;1.20;1.00;;;22.60;64.40;;;;;;5034883;28;20453;-91
2023/12/31 08:13:57;;;;;;;1.30;0.80;;;22.60;64.30;;;;;;5034704;28;20917;-90
2023/12/31 08:16:24;;;;;;;1.20;0.80;;;22.60;64.30;;;;;;5034567;28;20466;-91
2023/12/31 08:18:49;;;;;;;1.20;0.90;;;22.70;64.40;;;;;;5034593;28;20529;-92
2023/12/31 08:21:16;;;;;;;1.40;1.00;;;22.60;64.30;;;;;;5034311;28;20993;-90
2023/12/31 08:23:43;;;;;;;1.20;1.00;;;22.60;64.30;;;;;;5034746;28;20303;-91
2023/12/31 08:26:11;;;;;;;1.27;0.97;;;22.60;64.30;;;;;;5034229;28;20458;-95
2023/12/31 08:28:39;;;;;;;1.20;0.80;;;22.60;64.30;;;;;;5034419;28;20449;-90
2023/12/31 08:31:06;;;;;;;1.30;0.93;;;22.60;64.30;;;;;;5034109;28;20448;-90
2023/12/31 08:33:36;;;;;;;1.40;1.03;;;22.60;64.30;;;;;;5021172;28;20572;-91
2023/12/31 08:36:03;;;;;;;1.47;1.07;;;22.70;64.40;;;;;;5034285;28;20474;-94
2023/12/31 08:38:29;;;;;;;1.40;1.00;;;22.70;64.40;;;;;;5034279;28;20434;-91
2023/12/31 08:40:57;;;;;;;1.30;0.90;;;22.70;64.30;;;;;;5049904;28;20797;-91
2023/12/31 08:43:24;;;;;;;1.37;1.00;;;22.60;64.20;;;;;;5054334;28;20800;-90
2023/12/31 08:45:52;;;;;;;1.30;0.90;;;22.70;64.40;;;;;;5054228;28;20503;-92
2023/12/31 08:48:19;;;;;;;1.87;1.03;;;22.70;64.40;;;;;;5055293;28;20448;-91
2023/12/31 08:50:46;;;;;;;7.73;1.20;;;22.70;64.40;;;;;;5054066;28;20437;-95
2023/12/31 08:53:13;;;;;;;3.40;1.50;;;22.70;64.60;;;;;;5054129;28;20460;-93
2023/12/31 08:55:39;;;;;;;1.20;0.90;;;22.60;64.40;;;;;;5053851;28;20494;-95
2023/12/31 08:58:06;;;;;;;1.20;0.90;;;22.70;64.40;;;;;;5053769;28;20943;-92
2023/12/31 09:00:33;;;;;;;1.67;0.70;;;22.70;64.50;;;;;;5054642;28;20540;-91
2023/12/31 09:03:01;;;;;;;1.30;1.00;;;22.70;64.50;;;;;;5056847;28;20522;-91
2023/12/31 09:05:28;;;;;;;1.30;1.03;;;22.70;64.40;;;;;;5054302;28;20448;-91
2023/12/31 09:07:56;;;;;;;1.50;0.80;;;22.70;64.60;;;;;;5052960;28;20441;-91
2023/12/31 09:10:23;;;;;;;2.80;1.10;;;22.70;64.60;;;;;;5053207;28;20839;-91
2023/12/31 09:12:49;;;;;;;5.40;1.10;;;22.70;64.70;;;;;;5053089;28;20922;-90
2023/12/31 09:15:16;;;;;;;1.93;1.10;;;22.80;64.70;;;;;;5052963;28;20848;-95
2023/12/31 09:17:43;;;;;;;2.50;0.97;;;22.70;64.60;;;;;;5052964;28;20441;-91
2023/12/31 09:20:12;;;;;;;1.40;0.90;;;22.70;64.60;;;;;;5054263;28;20530;-91
2023/12/31 09:22:39;;;;;;;1.30;1.10;;;22.70;64.60;;;;;;5052746;28;20448;-92
2023/12/31 09:25:35;;;;;;;;;;;;;;;;;;;;;
2023/12/31 09:30:40;;;;;;;1.77;1.10;;;22.60;63.00;;;;;;5498034;22;20535;-94
2023/12/31 09:33:07;;;;;;;1.67;1.00;;;22.60;63.30;;;;;;5052452;28;20441;-90
2023/12/31 09:35:35;;;;;;;2.67;1.00;;;22.60;64.30;;;;;;5052505;28;20479;-91
2023/12/31 09:38:02;;;;;;;1.40;1.00;;;22.60;64.40;;;;;;5053314;28;20948;-94
2023/12/31 09:40:29;;;;;;;3.30;1.03;;;22.60;64.40;;;;;;5054067;28;20442;-91
2023/12/31 09:42:56;;;;;;;3.10;1.37;;;22.70;64.60;;;;;;5053727;28;20541;-90
2023/12/31 09:45:24;;;;;;;1.33;1.07;;;22.70;64.60;;;;;;5053409;28;20449;-94
2023/12/31 09:47:53;;;;;;;3.53;1.30;;;22.70;64.60;;;;;;5053092;28;20445;-91
2023/12/31 09:50:22;;;;;;;2.33;1.30;;;22.70;64.60;;;;;;5053056;28;20453;-94
2023/12/31 09:52:51;;;;;;;3.40;1.30;;;22.70;64.60;;;;;;5052232;28;20472;-94
2023/12/31 09:55:19;;;;;;;3.47;1.10;;;22.70;64.60;;;;;;5053391;28;20496;-92
2023/12/31 09:57:47;;;;;;;2.23;1.10;;;22.70;64.70;;;;;;5053231;28;20528;-91
2023/12/31 10:00:15;;;;;;;2.17;1.10;;;22.70;64.80;;;;;;5053798;28;20442;-95
2023/12/31 10:02:45;;;;;;;1.70;1.40;;;22.70;64.80;;;;;;5053826;28;20441;-92
2023/12/31 10:05:12;;;;;;;2.37;0.90;;;22.80;65.00;;;;;;5053614;28;20506;-95
2023/12/31 10:07:39;;;;;;;1.33;0.90;;;22.80;65.10;;;;;;5054065;28;20433;-94
2023/12/31 10:10:10;;;;;;;1.40;0.90;;;22.80;65.00;;;;;;5053673;28;20473;-91
2023/12/31 10:12:37;;;;;;;1.30;0.90;;;22.80;65.10;;;;;;5055287;28;20435;-90
2023/12/31 10:15:21;;;;;;;1.67;0.90;;;22.80;65.10;;;;;;5055825;28;20473;-96
2023/12/31 10:20:29;;;;;;;1.60;0.90;;;22.80;64.90;;;;;;5484565;22;20489;-96
2023/12/31 10:36:32;;;;;;;3.00;1.10;;;23.30;64.60;;;;;;5113421;22;21390;-89
2023/12/31 10:58:13;;;;;;;8.93;3.90;;;23.50;64.60;;;;;;4975752;28;20833;-94
2023/12/31 11:01:32;;;;;;;14.80;5.83;;;23.40;65.20;;;;;;4959383;29;20447;-93
2023/12/31 11:03:59;;;;;;;9.90;4.57;;;23.50;65.60;;;;;;4922770;29;20466;-93
2023/12/31 11:06:33;;;;;;;8.30;4.23;;;23.30;65.50;;;;;;4960259;29;20453;-93
2023/12/31 11:09:31;;;;;;;9.30;3.93;;;23.30;65.50;;;;;;4952703;29;20850;-96
2023/12/31 11:11:58;;;;;;;8.10;4.10;;;23.30;65.00;;;;;;4969359;29;20422;-93
2023/12/31 11:23:09;;;;;;;10.53;3.57;;;23.30;65.60;;;;;;5002275;28;20689;-93
2023/12/31 11:25:38;;;;;;;9.33;3.90;;;23.10;65.40;;;;;;4995435;28;20444;-92
2023/12/31 11:28:07;;;;;;;6.17;3.93;;;23.10;65.40;;;;;;4995504;28;20446;-91
2023/12/31 11:30:57;;;;;;;12.80;4.83;;;23.10;65.40;;;;;;4995031;28;20486;-93
2023/12/31 11:33:28;;;;;;;6.43;4.07;;;23.20;65.50;;;;;;4991075;28;20444;-93
2023/12/31 11:36:14;;;;;;;6.30;4.27;;;23.10;65.40;;;;;;4995154;28;20480;-94
2023/12/31 11:39:05;;;;;;;4.10;3.20;;;23.10;65.40;;;;;;4995297;28;20455;-94
2023/12/31 11:41:52;;;;;;;6.40;3.57;;;23.10;65.40;;;;;;4994799;28;20456;-96
2023/12/31 11:44:44;;;;;;;8.23;4.33;;;23.10;65.60;;;;;;4995845;28;20935;-94
2023/12/31 11:47:23;;;;;;;5.23;3.57;;;23.10;65.60;;;;;;4995977;28;20460;-94
2023/12/31 11:49:52;;;;;;;7.70;3.60;;;23.00;65.70;;;;;;4994749;28;20472;-93
2023/12/31 11:52:21;;;;;;;10.20;4.07;;;23.00;65.70;;;;;;4994897;28;20452;-91
2023/12/31 11:55:11;;;;;;;8.40;3.67;;;23.00;65.70;;;;;;4994987;28;20468;-95
2023/12/31 11:57:40;;;;;;;9.30;3.97;;;22.90;65.60;;;;;;4995970;28;20448;-93
2023/12/31 12:00:23;;;;;;;10.17;4.40;;;23.00;65.90;;;;;;4996020;28;20440;-95
2023/12/31 12:03:05;;;;;;;6.47;3.23;;;23.00;65.90;;;;;;4985790;28;20445;-95
2023/12/31 12:05:32;;;;;;;5.20;2.90;;;22.90;65.80;;;;;;4975049;28;20528;-94
2023/12/31 12:14:27;;;;;;;6.57;4.10;;;22.80;65.80;;;;;;4977544;28;20432;-93
2023/12/31 12:17:00;;;;;;;6.87;3.40;;;22.90;67.00;;;;;;4976081;28;20488;-95
2023/12/31 12:20:00;;;;;;;5.23;3.07;;;22.80;66.00;;;;;;5009168;28;20880;-96
2023/12/31 12:22:28;;;;;;;5.53;2.67;;;22.90;66.00;;;;;;5036750;28;20535;-96
2023/12/31 12:25:03;;;;;;;5.97;3.83;;;22.90;66.10;;;;;;5037055;28;20493;-94
2023/12/31 12:33:34;;;;;;;5.60;2.77;;;23.00;66.40;;;;;;5036568;28;20448;-95
2023/12/31 12:36:03;;;;;;;5.80;2.70;;;22.90;66.20;;;;;;5029096;28;20969;-94
2023/12/31 12:41:51;;;;;;;3.53;2.50;;;22.90;66.30;;;;;;5016464;28;20438;-95
2023/12/31 12:44:37;;;;;;;7.40;3.10;;;22.90;66.30;;;;;;5035818;28;20449;-94
2023/12/31 12:47:04;;;;;;;5.47;2.97;;;22.90;66.30;;;;;;5035987;28;20886;-91
2023/12/31 12:49:33;;;;;;;7.30;2.17;;;23.00;66.50;;;;;;5037489;28;20882;-96
2023/12/31 12:52:00;;;;;;;6.47;2.30;;;22.90;66.40;;;;;;5037887;28;20860;-95
2023/12/31 12:54:29;;;;;;;3.43;2.30;;;22.90;66.30;;;;;;5037511;28;20454;-94
2023/12/31 12:56:58;;;;;;;6.03;2.67;;;22.90;66.30;;;;;;5039987;28;20482;-95
2023/12/31 12:59:28;;;;;;;4.60;2.53;;;22.90;66.40;;;;;;5038243;28;20449;-95
2023/12/31 13:09:59;;;;;;;2.23;1.60;;;22.90;66.40;;;;;;5295725;22;20548;-94
2023/12/31 13:12:34;;;;;;;6.57;2.43;;;22.90;66.30;;;;;;5061450;23;20446;-93
2023/12/31 13:32:46;;;;;;;3.63;2.03;;;22.90;66.40;;;;;;5257011;22;20496;-93
2023/12/31 13:35:12;;;;;;;4.97;2.23;;;22.90;66.40;;;;;;5057353;28;20495;-93
2023/12/31 13:38:28;;;;;;;5.33;2.17;;;22.90;66.40;;;;;;5059427;28;20449;-94
2023/12/31 13:41:35;;;;;;;5.37;2.30;;;22.80;66.30;;;;;;5054612;28;20503;-96
2023/12/31 13:44:02;;;;;;;4.27;2.33;;;22.90;66.40;;;;;;5054850;23;21004;-95
2023/12/31 13:46:47;;;;;;;4.13;1.90;;;22.90;66.50;;;;;;5055223;28;20511;-95
2023/12/31 13:55:56;;;;;;;2.70;1.50;;;22.90;66.10;;;;;;4974872;28;20888;-95
2023/12/31 14:09:03;;;;;;;2.33;1.50;;;22.90;66.10;;;;;;5057184;28;20772;-96
2023/12/31 14:11:36;;;;;;;5.00;1.73;;;22.90;66.10;;;;;;5059748;28;20536;-94
2023/12/31 14:46:25;;;;;;;2.73;1.40;;;22.90;65.90;;;;;;5013269;23;20603;-95
2023/12/31 14:48:54;;;;;;;3.60;1.73;;;22.80;64.60;;;;;;4978857;28;20552;-94
2023/12/31 14:51:21;;;;;;;2.87;1.73;;;22.90;65.50;;;;;;4980143;28;20484;-94
2023/12/31 14:53:48;;;;;;;4.47;1.47;;;22.90;65.60;;;;;;4978798;28;20452;-93
2023/12/31 14:56:15;;;;;;;2.30;1.67;;;22.90;65.50;;;;;;4980369;28;20575;-94
2023/12/31 14:58:45;;;;;;;2.50;1.47;;;22.90;65.50;;;;;;4978553;28;20461;-94
2023/12/31 15:01:12;;;;;;;2.20;1.43;;;22.80;65.40;;;;;;4978074;28;20441;-93
2023/12/31 15:03:40;;;;;;;4.20;1.63;;;22.90;66.40;;;;;;4979200;28;20449;-94
2023/12/31 15:06:09;;;;;;;4.07;1.93;;;22.80;65.60;;;;;;4979873;28;20457;-93
2023/12/31 15:08:36;;;;;;;2.00;1.67;;;22.90;65.70;;;;;;4978627;28;20458;-93
2023/12/31 15:11:03;;;;;;;2.20;1.93;;;22.90;65.80;;;;;;4978286;28;20872;-93
2023/12/31 15:13:30;;;;;;;4.47;1.60;;;22.90;65.80;;;;;;4977699;28;20447;-93